Station Historical Data
V 3.3 - 4-Mar-2016
Daily Summary for February 14, 2018 Units:  Both    English   Metric
« Previous Day
Next Day »
Daily Weekly Monthly Yearly Custom
  High: Low: Average:
Temperature: 86.7 °F /  30.4 °C 69.4 °F /  20.8 °C 74.8 °F /  23.8 °C
Dew Point: 73.4 °F /  23.0 °C 67.5 °F /  19.7 °C 70.2 °F /  21.2 °C
Humidity: 98% 60% 86%
Wind Speed: 4.5 mph /  7.2 km/h - 1.1 mph /  1.7 km/h
Wind Gust: 8.3 mph /  13.4 km/h - -
Wind- - WSW
Pressure: 29.9 in /  1014.1 hPa 29.8 in /  1010.4 hPa -
Precipitation: 0.01 in /  0.3 mm    
Historical Graphs
 
 
Tabular Data for February 14, 2018
Time Temperature Dew Point Pressure Wind Wind Speed Wind Gust Humidity Rain Rate (Hrly) Rain Day
00:02 71.4 °F /  21.9 °C 70.5 °F /  21.4 °C 29.9in /  1014.1hPa Calm   2.2mph /  3.5km/h 97% 0in /  0.0mm 0.0mm
00:08 71.4 °F /  21.9 °C 70.5 °F /  21.4 °C 29.9in /  1014.1hPa Calm   2.2mph /  3.5km/h 97% 0in /  0.0mm 0.0mm
00:14 71.1 °F /  21.7 °C 70.2 °F /  21.2 °C 29.9in /  1014.1hPa Calm   1.6mph /  2.6km/h 97% 0in /  0.0mm 0.0mm
00:20 71.1 °F /  21.7 °C 70.2 °F /  21.2 °C 29.9in /  1013.8hPa Calm   1.6mph /  2.6km/h 97% 0in /  0.0mm 0.0mm
00:26 71.1 °F /  21.7 °C 70.2 °F /  21.2 °C 29.9in /  1013.4hPa Calm   2.2mph /  3.5km/h 97% 0in /  0.0mm 0.0mm
00:32 71.1 °F /  21.7 °C 70.2 °F /  21.2 °C 29.9in /  1013.8hPa Calm   2.2mph /  3.5km/h 97% 0in /  0.0mm 0.0mm
00:38 71.1 °F /  21.7 °C 70.2 °F /  21.2 °C 29.9in /  1013.8hPa Calm   1.6mph /  2.6km/h 97% 0in /  0.0mm 0.0mm
00:44 71.1 °F /  21.7 °C 70.2 °F /  21.2 °C 29.9in /  1013.8hPa Calm   1.6mph /  2.6km/h 97% 0in /  0.0mm 0.0mm
00:50 71.1 °F /  21.7 °C 70.2 °F /  21.2 °C 29.9in /  1013.8hPa Calm   0.7mph /  1.1km/h 97% 0in /  0.0mm 0.0mm
00:56 71.1 °F /  21.7 °C 70.2 °F /  21.2 °C 29.9in /  1013.8hPa Calm   1.6mph /  2.6km/h 97% 0in /  0.0mm 0.0mm
01:02 71.1 °F /  21.7 °C 70.2 °F /  21.2 °C 29.9in /  1013.8hPa Calm   1.6mph /  2.6km/h 97% 0in /  0.0mm 0.0mm
01:08 71.1 °F /  21.7 °C 70.2 °F /  21.2 °C 29.9in /  1013.8hPa Calm   1.6mph /  2.6km/h 97% 0in /  0.0mm 0.0mm
01:14 71.1 °F /  21.7 °C 70.2 °F /  21.2 °C 29.9in /  1013.8hPa Calm   0.7mph /  1.1km/h 97% 0in /  0.0mm 0.0mm
01:20 70.9 °F /  21.6 °C 70 °F /  21.1 °C 29.9in /  1013.8hPa Calm   0.7mph /  1.1km/h 97% 0in /  0.0mm 0.0mm
01:26 70.7 °F /  21.5 °C 69.8 °F /  21.0 °C 29.9in /  1013.8hPa Calm   0.7mph /  1.1km/h 97% 0in /  0.0mm 0.0mm
01:32 70.7 °F /  21.5 °C 69.8 °F /  21.0 °C 29.9in /  1013.4hPa Calm   0.7mph /  1.1km/h 97% 0in /  0.0mm 0.0mm
01:38 70.7 °F /  21.5 °C 69.8 °F /  21.0 °C 29.9in /  1013.4hPa Calm     97% 0in /  0.0mm 0.0mm
01:44 70.7 °F /  21.5 °C 69.8 °F /  21.0 °C 29.9in /  1013.4hPa Calm     97% 0in /  0.0mm 0.0mm
01:50 70.7 °F /  21.5 °C 69.8 °F /  21.0 °C 29.9in /  1013.4hPa Calm     97% 0in /  0.0mm 0.0mm
01:56 70.7 °F /  21.5 °C 69.8 °F /  21.0 °C 29.9in /  1013.4hPa Calm     97% 0in /  0.0mm 0.0mm
02:02 70.7 °F /  21.5 °C 69.8 °F /  21.0 °C 29.9in /  1013.4hPa Calm     97% 0in /  0.0mm 0.0mm
02:08 70.5 °F /  21.4 °C 69.6 °F /  20.9 °C 29.9in /  1013.4hPa Calm     97% 0in /  0.0mm 0.0mm
02:14 70.5 °F /  21.4 °C 69.6 °F /  20.9 °C 29.9in /  1013.1hPa Calm     97% 0in /  0.0mm 0.0mm
02:20 70.2 °F /  21.2 °C 69.3 °F /  20.7 °C 29.9in /  1012.8hPa Calm     97% 0in /  0.0mm 0.0mm
02:26 69.8 °F /  21.0 °C 68.9 °F /  20.5 °C 29.9in /  1013.1hPa Calm     97% 0in /  0.0mm 0.0mm
02:32 69.6 °F /  20.9 °C 69.1 °F /  20.6 °C 29.9in /  1013.1hPa Calm     98% 0in /  0.0mm 0.0mm
02:38 69.6 °F /  20.9 °C 69.1 °F /  20.6 °C 29.9in /  1013.1hPa Calm     98% 0in /  0.0mm 0.0mm
02:44 69.6 °F /  20.9 °C 69.1 °F /  20.6 °C 29.9in /  1013.1hPa Calm     98% 0in /  0.0mm 0.0mm
02:50 69.6 °F /  20.9 °C 69.1 °F /  20.6 °C 29.9in /  1012.8hPa Calm     98% 0in /  0.0mm 0.0mm
02:56 69.4 °F /  20.8 °C 68.9 °F /  20.5 °C 29.9in /  1012.8hPa Calm     98% 0in /  0.0mm 0.0mm
03:02 69.6 °F /  20.9 °C 69.1 °F /  20.6 °C 29.9in /  1012.8hPa Calm     98% 0in /  0.0mm 0.0mm
03:08 69.4 °F /  20.8 °C 68.9 °F /  20.5 °C 29.9in /  1012.8hPa Calm     98% 0in /  0.0mm 0.0mm
03:14 69.6 °F /  20.9 °C 69.1 °F /  20.6 °C 29.9in /  1012.8hPa Calm   1.6mph /  2.6km/h 98% 0in /  0.0mm 0.0mm
03:20 69.8 °F /  21.0 °C 68.9 °F /  20.5 °C 29.9in /  1012.8hPa Calm   1.6mph /  2.6km/h 97% 0in /  0.0mm 0.0mm
03:26 70 °F /  21.1 °C 69.1 °F /  20.6 °C 29.9in /  1012.8hPa Calm   1.6mph /  2.6km/h 97% 0in /  0.0mm 0.0mm
03:32 70.2 °F /  21.2 °C 69.3 °F /  20.7 °C 29.9in /  1012.8hPa Calm   1.6mph /  2.6km/h 97% 0in /  0.0mm 0.0mm
03:38 70.2 °F /  21.2 °C 69.3 °F /  20.7 °C 29.9in /  1012.8hPa Calm   2.2mph /  3.5km/h 97% 0in /  0.0mm 0.0mm
03:44 70.2 °F /  21.2 °C 69.3 °F /  20.7 °C 29.9in /  1012.8hPa Calm   2.2mph /  3.5km/h 97% 0in /  0.0mm 0.0mm
03:50 70 °F /  21.1 °C 69.1 °F /  20.6 °C 29.9in /  1012.8hPa Calm   1.6mph /  2.6km/h 97% 0in /  0.0mm 0.0mm
03:56 70 °F /  21.1 °C 69.1 °F /  20.6 °C 29.9in /  1012.8hPa Calm   1.6mph /  2.6km/h 97% 0in /  0.0mm 0.0mm
04:02 70.2 °F /  21.2 °C 69.6 °F /  20.9 °C 29.9in /  1012.8hPa NNW 0.7mph /  1.1km/h 1.6mph /  2.6km/h 98% 0in /  0.0mm 0.0mm
04:08 70.2 °F /  21.2 °C 69.6 °F /  20.9 °C 29.9in /  1012.8hPa North 0.7mph /  1.1km/h 1.6mph /  2.6km/h 98% 0in /  0.0mm 0.0mm
04:14 70.3 °F /  21.3 °C 69.8 °F /  21.0 °C 29.9in /  1012.8hPa North 0.7mph /  1.1km/h 2.2mph /  3.5km/h 98% 0in /  0.0mm 0.0mm
04:20 70.3 °F /  21.3 °C 69.8 °F /  21.0 °C 29.9in /  1012.4hPa NNE 0.7mph /  1.1km/h 2.2mph /  3.5km/h 98% 0in /  0.0mm 0.0mm
04:26 70.3 °F /  21.3 °C 69.8 °F /  21.0 °C 29.9in /  1012.4hPa NNE 0.7mph /  1.1km/h 2.2mph /  3.5km/h 98% 0in /  0.0mm 0.0mm
04:32 70.3 °F /  21.3 °C 69.8 °F /  21.0 °C 29.9in /  1012.4hPa North 1.6mph /  2.6km/h 3.1mph /  5.0km/h 98% 0in /  0.0mm 0.0mm
04:38 70.5 °F /  21.4 °C 70 °F /  21.1 °C 29.9in /  1012.4hPa North 0.7mph /  1.1km/h 3.1mph /  5.0km/h 98% 0in /  0.0mm 0.0mm
04:44 70.3 °F /  21.3 °C 69.8 °F /  21.0 °C 29.9in /  1012.4hPa Calm   2.2mph /  3.5km/h 98% 0in /  0.0mm 0.0mm
04:50 70.3 °F /  21.3 °C 69.8 °F /  21.0 °C 29.9in /  1012.4hPa North 0.7mph /  1.1km/h 2.2mph /  3.5km/h 98% 0in /  0.0mm 0.0mm
04:56 70.3 °F /  21.3 °C 69.8 °F /  21.0 °C 29.9in /  1012.1hPa Calm   2.2mph /  3.5km/h 98% 0in /  0.0mm 0.0mm
05:02 70.3 °F /  21.3 °C 69.8 °F /  21.0 °C 29.9in /  1012.4hPa Calm     98% 0in /  0.0mm 0.0mm
05:08 70.3 °F /  21.3 °C 69.8 °F /  21.0 °C 29.9in /  1012.4hPa Calm   1.6mph /  2.6km/h 98% 0in /  0.0mm 0.0mm
05:14 70.3 °F /  21.3 °C 69.8 °F /  21.0 °C 29.9in /  1012.4hPa NNE 0.7mph /  1.1km/h 2.2mph /  3.5km/h 98% 0in /  0.0mm 0.0mm
05:20 70.3 °F /  21.3 °C 69.8 °F /  21.0 °C 29.9in /  1012.4hPa Calm   2.2mph /  3.5km/h 98% 0in /  0.0mm 0.0mm
05:26 70.3 °F /  21.3 °C 69.8 °F /  21.0 °C 29.9in /  1012.4hPa NNE 0.7mph /  1.1km/h 3.1mph /  5.0km/h 98% 0in /  0.0mm 0.0mm
05:32 70.3 °F /  21.3 °C 69.8 °F /  21.0 °C 29.9in /  1012.4hPa North 1.6mph /  2.6km/h 3.1mph /  5.0km/h 98% 0in /  0.0mm 0.0mm
05:38 70.3 °F /  21.3 °C 69.8 °F /  21.0 °C 29.9in /  1012.8hPa North 2.2mph /  3.5km/h 3.1mph /  5.0km/h 98% 0in /  0.0mm 0.0mm
05:44 70.3 °F /  21.3 °C 69.8 °F /  21.0 °C 29.9in /  1012.4hPa North 0.7mph /  1.1km/h 3.1mph /  5.0km/h 98% 0in /  0.0mm 0.0mm
05:50 70.3 °F /  21.3 °C 69.8 °F /  21.0 °C 29.9in /  1012.4hPa Calm   2.2mph /  3.5km/h 98% 0in /  0.0mm 0.0mm
05:56 70.3 °F /  21.3 °C 69.8 °F /  21.0 °C 29.9in /  1012.4hPa NE 0.7mph /  1.1km/h 4.5mph /  7.2km/h 98% 0in /  0.0mm 0.0mm
06:02 70.3 °F /  21.3 °C 69.8 °F /  21.0 °C 29.9in /  1012.4hPa Calm   4.5mph /  7.2km/h 98% 0in /  0.0mm 0.0mm
06:08 70.2 °F /  21.2 °C 69.6 °F /  20.9 °C 29.9in /  1012.4hPa North 0.7mph /  1.1km/h 3.1mph /  5.0km/h 98% 0in /  0.0mm 0.0mm
06:14 70.2 °F /  21.2 °C 69.6 °F /  20.9 °C 29.9in /  1012.4hPa Calm   3.1mph /  5.0km/h 98% 0in /  0.0mm 0.0mm
06:20 70.2 °F /  21.2 °C 69.6 °F /  20.9 °C 29.9in /  1012.4hPa Calm   1.6mph /  2.6km/h 98% 0in /  0.0mm 0.0mm
06:26 70.3 °F /  21.3 °C 69.4 °F /  20.8 °C 29.9in /  1012.4hPa Calm   2.2mph /  3.5km/h 97% 0in /  0.0mm 0.0mm
06:32 70.3 °F /  21.3 °C 69.4 °F /  20.8 °C 29.9in /  1012.4hPa Calm   2.2mph /  3.5km/h 97% 0in /  0.0mm 0.0mm
06:38 70.3 °F /  21.3 °C 69.4 °F /  20.8 °C 29.9in /  1012.8hPa Calm   2.2mph /  3.5km/h 97% 0in /  0.0mm 0.0mm
06:44 70.3 °F /  21.3 °C 69.4 °F /  20.8 °C 29.9in /  1012.4hPa Calm   3.1mph /  5.0km/h 97% 0in /  0.0mm 0.0mm
06:50 70.3 °F /  21.3 °C 69.4 °F /  20.8 °C 29.9in /  1012.4hPa Calm   3.1mph /  5.0km/h 97% 0in /  0.0mm 0.0mm
06:56 70.3 °F /  21.3 °C 69.4 °F /  20.8 °C 29.9in /  1012.4hPa NW 0.7mph /  1.1km/h 1.6mph /  2.6km/h 97% 0in /  0.0mm 0.0mm
07:02 70.3 °F /  21.3 °C 69.4 °F /  20.8 °C 29.9in /  1012.8hPa NNW 0.7mph /  1.1km/h 2.2mph /  3.5km/h 97% 0in /  0.0mm 0.0mm
07:08 70.3 °F /  21.3 °C 69.4 °F /  20.8 °C 29.9in /  1012.4hPa Calm   2.2mph /  3.5km/h 97% 0in /  0.0mm 0.0mm
07:14 70.5 °F /  21.4 °C 69.6 °F /  20.9 °C 29.9in /  1012.4hPa North 0.7mph /  1.1km/h 2.2mph /  3.5km/h 97% 0in /  0.0mm 0.0mm
07:20 70.5 °F /  21.4 °C 69.6 °F /  20.9 °C 29.9in /  1012.4hPa Calm   2.2mph /  3.5km/h 97% 0in /  0.0mm 0.0mm
07:26 70.5 °F /  21.4 °C 69.6 °F /  20.9 °C 29.9in /  1012.4hPa Calm   3.1mph /  5.0km/h 97% 0in /  0.0mm 0.0mm
07:32 70.5 °F /  21.4 °C 69.6 °F /  20.9 °C 29.9in /  1012.8hPa North 0.7mph /  1.1km/h 3.1mph /  5.0km/h 97% 0in /  0.0mm 0.0mm
07:38 70.7 °F /  21.5 °C 69.8 °F /  21.0 °C 29.9in /  1012.4hPa North 0.7mph /  1.1km/h 3.8mph /  6.1km/h 97% 0in /  0.0mm 0.0mm
07:44 70.7 °F /  21.5 °C 69.8 °F /  21.0 °C 29.9in /  1012.8hPa Calm   3.8mph /  6.1km/h 97% 0in /  0.0mm 0.0mm
07:50 70.9 °F /  21.6 °C 70 °F /  21.1 °C 29.9in /  1012.8hPa Calm   2.2mph /  3.5km/h 97% 0in /  0.0mm 0.0mm
07:56 70.9 °F /  21.6 °C 70 °F /  21.1 °C 29.9in /  1012.4hPa NNW 0.7mph /  1.1km/h 2.2mph /  3.5km/h 97% 0in /  0.0mm 0.0mm
08:02 71.4 °F /  21.9 °C 70.5 °F /  21.4 °C 29.9in /  1012.8hPa North 1.6mph /  2.6km/h 3.8mph /  6.1km/h 97% 0in /  0.0mm 0.0mm
08:08 72 °F /  22.2 °C 70.9 °F /  21.6 °C 29.9in /  1012.4hPa North 0.7mph /  1.1km/h 3.8mph /  6.1km/h 96% 0in /  0.0mm 0.0mm
08:14 72 °F /  22.2 °C 70.9 °F /  21.6 °C 29.9in /  1012.8hPa North 1.6mph /  2.6km/h 4.5mph /  7.2km/h 96% 0in /  0.0mm 0.0mm
08:20 72.3 °F /  22.4 °C 71.2 °F /  21.8 °C 29.9in /  1012.8hPa Calm   4.5mph /  7.2km/h 96% 0in /  0.0mm 0.0mm
08:26 72.9 °F /  22.7 °C 71.8 °F /  22.1 °C 29.9in /  1012.8hPa NNW 1.6mph /  2.6km/h 3.8mph /  6.1km/h 96% 0in /  0.0mm 0.0mm
08:32 73.4 °F /  23.0 °C 72.1 °F /  22.3 °C 29.9in /  1012.8hPa NNE 0.7mph /  1.1km/h 3.8mph /  6.1km/h 96% 0in /  0.0mm 0.0mm
08:38 73.4 °F /  23.0 °C 72 °F /  22.2 °C 29.9in /  1012.8hPa North 0.7mph /  1.1km/h 4.5mph /  7.2km/h 95% 0in /  0.0mm 0.0mm
08:44 73.8 °F /  23.2 °C 72 °F /  22.2 °C 29.9in /  1012.8hPa North 2.2mph /  3.5km/h 5.4mph /  8.7km/h 94% 0in /  0.0mm 0.0mm
08:50 73.4 °F /  23.0 °C 71.6 °F /  22.0 °C 29.9in /  1012.8hPa NW 0.7mph /  1.1km/h 5.4mph /  8.7km/h 94% 0in /  0.0mm 0.0mm
08:56 73.6 °F /  23.1 °C 71.4 °F /  21.9 °C 29.9in /  1012.8hPa NNW 0.7mph /  1.1km/h 3.8mph /  6.1km/h 93% 0in /  0.0mm 0.0mm
09:02 73.6 °F /  23.1 °C 71.4 °F /  21.9 °C 29.9in /  1012.8hPa North 1.6mph /  2.6km/h 3.1mph /  5.0km/h 93% 0in /  0.0mm 0.0mm
09:08 74.1 °F /  23.4 °C 71.8 °F /  22.1 °C 29.9in /  1012.8hPa NNW 0.7mph /  1.1km/h 3.1mph /  5.0km/h 92% 0in /  0.0mm 0.0mm
09:14 75.4 °F /  24.1 °C 72.7 °F /  22.6 °C 29.9in /  1012.8hPa NW 1.6mph /  2.6km/h 3.8mph /  6.1km/h 91% 0in /  0.0mm 0.0mm
09:20 75.9 °F /  24.4 °C 72.1 °F /  22.3 °C 29.9in /  1012.8hPa NW 0.7mph /  1.1km/h 6mph /  9.7km/h 88% 0in /  0.0mm 0.0mm
09:26 75.7 °F /  24.3 °C 71.6 °F /  22.0 °C 29.9in /  1012.8hPa Calm   6mph /  9.7km/h 87% 0in /  0.0mm 0.0mm
09:32 76.5 °F /  24.7 °C 72 °F /  22.2 °C 29.9in /  1012.8hPa NW 0.7mph /  1.1km/h 3.1mph /  5.0km/h 86% 0in /  0.0mm 0.0mm
09:38 76.8 °F /  24.9 °C 71.8 °F /  22.1 °C 29.9in /  1013.1hPa NW 2.2mph /  3.5km/h 4.5mph /  7.2km/h 84% 0in /  0.0mm 0.0mm
09:44 76.6 °F /  24.8 °C 71.1 °F /  21.7 °C 29.9in /  1012.8hPa West 1.6mph /  2.6km/h 5.4mph /  8.7km/h 83% 0in /  0.0mm 0.0mm
09:50 76.8 °F /  24.9 °C 71.2 °F /  21.8 °C 29.9in /  1013.1hPa WNW 1.6mph /  2.6km/h 5.4mph /  8.7km/h 83% 0in /  0.0mm 0.0mm
09:56 77 °F /  25.0 °C 70.9 °F /  21.6 °C 29.9in /  1012.8hPa WNW 1.6mph /  2.6km/h 3.8mph /  6.1km/h 81% 0in /  0.0mm 0.0mm
10:02 77 °F /  25.0 °C 70.9 °F /  21.6 °C 29.9in /  1012.8hPa WNW 1.6mph /  2.6km/h 4.5mph /  7.2km/h 81% 0in /  0.0mm 0.0mm
10:08 77.4 °F /  25.2 °C 71.1 °F /  21.7 °C 29.9in /  1012.8hPa NW 0.7mph /  1.1km/h 4.5mph /  7.2km/h 81% 0in /  0.0mm 0.0mm
10:14 77.9 °F /  25.5 °C 71.2 °F /  21.8 °C 29.9in /  1012.8hPa NW 0.7mph /  1.1km/h 3.1mph /  5.0km/h 80% 0in /  0.0mm 0.0mm
10:20 77.5 °F /  25.3 °C 70.9 °F /  21.6 °C 29.9in /  1012.8hPa WNW 1.6mph /  2.6km/h 3.8mph /  6.1km/h 80% 0in /  0.0mm 0.0mm
10:26 77.5 °F /  25.3 °C 70.9 °F /  21.6 °C 29.9in /  1012.4hPa WNW 0.7mph /  1.1km/h 4.5mph /  7.2km/h 80% 0in /  0.0mm 0.0mm
10:32 77.9 °F /  25.5 °C 71.2 °F /  21.8 °C 29.9in /  1012.8hPa NNW 1.6mph /  2.6km/h 4.5mph /  7.2km/h 80% 0in /  0.0mm 0.0mm
10:38 77.9 °F /  25.5 °C 70.9 °F /  21.6 °C 29.9in /  1012.4hPa North 3.1mph /  5.0km/h 5.4mph /  8.7km/h 79% 0in /  0.0mm 0.0mm
10:44 77.4 °F /  25.2 °C 70.3 °F /  21.3 °C 29.9in /  1012.8hPa NW 0.7mph /  1.1km/h 5.4mph /  8.7km/h 79% 0in /  0.0mm 0.0mm
10:50 77.9 °F /  25.5 °C 71.2 °F /  21.8 °C 29.9in /  1012.8hPa NW 2.2mph /  3.5km/h 4.5mph /  7.2km/h 80% 0in /  0.0mm 0.0mm
10:56 77.5 °F /  25.3 °C 70.9 °F /  21.6 °C 29.9in /  1012.8hPa WNW 1.6mph /  2.6km/h 4.5mph /  7.2km/h 80% 0in /  0.0mm 0.0mm
11:02 77.7 °F /  25.4 °C 71.1 °F /  21.7 °C 29.9in /  1012.8hPa NNW 1.6mph /  2.6km/h 5.4mph /  8.7km/h 80% 0in /  0.0mm 0.0mm
11:08 78.6 °F /  25.9 °C 71.6 °F /  22.0 °C 29.9in /  1012.8hPa West 2.2mph /  3.5km/h 3.8mph /  6.1km/h 79% 0in /  0.0mm 0.0mm
11:14 78.8 °F /  26.0 °C 71.1 °F /  21.7 °C 29.9in /  1013.1hPa NNW 1.6mph /  2.6km/h 3.8mph /  6.1km/h 77% 0in /  0.0mm 0.0mm
11:20 78.3 °F /  25.7 °C 70.5 °F /  21.4 °C 29.9in /  1012.8hPa NNW 0.7mph /  1.1km/h 3.8mph /  6.1km/h 77% 0in /  0.0mm 0.0mm
11:26 77.7 °F /  25.4 °C 70.7 °F /  21.5 °C 29.9in /  1012.8hPa NNW 2.2mph /  3.5km/h 3.8mph /  6.1km/h 79% 0in /  0.0mm 0.0mm
11:32 77.7 °F /  25.4 °C 71.1 °F /  21.7 °C 29.9in /  1012.8hPa North 1.6mph /  2.6km/h 4.5mph /  7.2km/h 80% 0in /  0.0mm 0.0mm
11:38 77.4 °F /  25.2 °C 70.9 °F /  21.6 °C 29.9in /  1012.8hPa NNW 3.1mph /  5.0km/h 4.5mph /  7.2km/h 80% 0in /  0.0mm 0.0mm
11:44 78.1 °F /  25.6 °C 71.8 °F /  22.1 °C 29.9in /  1012.8hPa North 3.1mph /  5.0km/h 3.8mph /  6.1km/h 81% 0in /  0.0mm 0.0mm
11:50 78.3 °F /  25.7 °C 71.2 °F /  21.8 °C 29.9in /  1012.8hPa North 2.2mph /  3.5km/h 6mph /  9.7km/h 79% 0in /  0.0mm 0.0mm
11:56 77.4 °F /  25.2 °C 70.9 °F /  21.6 °C 29.9in /  1012.8hPa NW 0.7mph /  1.1km/h 6mph /  9.7km/h 80% 0in /  0.0mm 0.0mm
12:02 79.3 °F /  26.3 °C 72.3 °F /  22.4 °C 29.9in /  1012.8hPa NW 1.6mph /  2.6km/h 3.8mph /  6.1km/h 79% 0in /  0.0mm 0.0mm
12:08 79.3 °F /  26.3 °C 70.9 °F /  21.6 °C 29.9in /  1012.8hPa NNE 2.2mph /  3.5km/h 4.5mph /  7.2km/h 75% 0in /  0.0mm 0.0mm
12:14 80.1 °F /  26.7 °C 72.3 °F /  22.4 °C 29.9in /  1012.4hPa NNE 1.6mph /  2.6km/h 4.5mph /  7.2km/h 77% 0in /  0.0mm 0.0mm
12:20 82.2 °F /  27.9 °C 72.9 °F /  22.7 °C 29.9in /  1012.4hPa NNE 2.2mph /  3.5km/h 4.5mph /  7.2km/h 73% 0in /  0.0mm 0.0mm
12:26 81.7 °F /  27.6 °C 71.1 °F /  21.7 °C 29.9in /  1012.4hPa WNW 0.7mph /  1.1km/h 6.9mph /  11.1km/h 70% 0in /  0.0mm 0.0mm
12:32 83.3 °F /  28.5 °C 73 °F /  22.8 °C 29.9in /  1012.4hPa NW 1.6mph /  2.6km/h 5.4mph /  8.7km/h 71% 0in /  0.0mm 0.0mm
12:38 82 °F /  27.8 °C 70.5 °F /  21.4 °C 29.9in /  1012.4hPa NW 3.1mph /  5.0km/h 7.6mph /  12.2km/h 68% 0in /  0.0mm 0.0mm
12:44 82 °F /  27.8 °C 71.2 °F /  21.8 °C 29.9in /  1012.4hPa NW 2.2mph /  3.5km/h 7.6mph /  12.2km/h 70% 0in /  0.0mm 0.0mm
12:50 83.1 °F /  28.4 °C 71.4 °F /  21.9 °C 29.9in /  1012.1hPa NNW 2.2mph /  3.5km/h 6mph /  9.7km/h 68% 0in /  0.0mm 0.0mm
12:56 83.8 °F /  28.8 °C 71.8 °F /  22.1 °C 29.9in /  1012.4hPa NNE 2.2mph /  3.5km/h 6.9mph /  11.1km/h 67% 0in /  0.0mm 0.0mm
13:02 81.7 °F /  27.6 °C 70.2 °F /  21.2 °C 29.9in /  1012.4hPa NE 1.6mph /  2.6km/h 4.5mph /  7.2km/h 68% 0in /  0.0mm 0.0mm
13:08 78.4 °F /  25.8 °C 69.4 °F /  20.8 °C 29.9in /  1012.4hPa NNW 3.1mph /  5.0km/h 4.5mph /  7.2km/h 74% 0in /  0.0mm 0.0mm
13:14 77 °F /  25.0 °C 70.3 °F /  21.3 °C 29.9in /  1012.1hPa North 0.7mph /  1.1km/h 4.5mph /  7.2km/h 80% 0in /  0.0mm 0.0mm
13:20 78.6 °F /  25.9 °C 73 °F /  22.8 °C 29.9in /  1012.1hPa NE 1.6mph /  2.6km/h 4.5mph /  7.2km/h 83% 0in /  0.0mm 0.0mm
13:26 80.6 °F /  27.0 °C 73.2 °F /  22.9 °C 29.9in /  1012.1hPa NNE 1.6mph /  2.6km/h 4.5mph /  7.2km/h 78% 0in /  0.0mm 0.0mm
13:32 81.3 °F /  27.4 °C 71.4 °F /  21.9 °C 29.9in /  1012.1hPa NNE 2.2mph /  3.5km/h 4.5mph /  7.2km/h 72% 0in /  0.0mm 0.0mm
13:38 81.5 °F /  27.5 °C 71.2 °F /  21.8 °C 29.9in /  1012.1hPa NE 1.6mph /  2.6km/h 5.4mph /  8.7km/h 71% 0.01in /  0.3mm 0.3mm
13:44 79.3 °F /  26.3 °C 70 °F /  21.1 °C 29.9in /  1012.1hPa NE 0.7mph /  1.1km/h 5.4mph /  8.7km/h 73% 0.01in /  0.3mm 0.3mm
13:50 78.1 °F /  25.6 °C 71.1 °F /  21.7 °C 29.9in /  1011.7hPa NNE 1.6mph /  2.6km/h 4.5mph /  7.2km/h 79% 0.01in /  0.3mm 0.3mm
13:56 80.4 °F /  26.9 °C 73.4 °F /  23.0 °C 29.9in /  1012.1hPa North 3.1mph /  5.0km/h 5.4mph /  8.7km/h 79% 0.01in /  0.3mm 0.3mm
14:02 81.9 °F /  27.7 °C 72.3 °F /  22.4 °C 29.9in /  1011.7hPa NNE 1.6mph /  2.6km/h 8.3mph /  13.4km/h 73% 0.01in /  0.3mm 0.3mm
14:08 82.4 °F /  28.0 °C 71.8 °F /  22.1 °C 29.9in /  1011.7hPa NNE 0.7mph /  1.1km/h 8.3mph /  13.4km/h 70% 0.01in /  0.3mm 0.3mm
14:14 80.4 °F /  26.9 °C 70.2 °F /  21.2 °C 29.9in /  1012.1hPa North 3.1mph /  5.0km/h 6.9mph /  11.1km/h 71% 0.01in /  0.3mm 0.3mm
14:20 80.1 °F /  26.7 °C 70.3 °F /  21.3 °C 29.9in /  1012.1hPa NNE 2.2mph /  3.5km/h 6.9mph /  11.1km/h 72% 0.01in /  0.3mm 0.3mm
14:26 79.5 °F /  26.4 °C 69.6 °F /  20.9 °C 29.9in /  1012.1hPa North 2.2mph /  3.5km/h 6mph /  9.7km/h 72% 0.01in /  0.3mm 0.3mm
14:32 79.3 °F /  26.3 °C 69.6 °F /  20.9 °C 29.9in /  1012.1hPa NW 3.1mph /  5.0km/h 6mph /  9.7km/h 72% 0in /  0.0mm 0.3mm
14:38 80.2 °F /  26.8 °C 70 °F /  21.1 °C 29.9in /  1011.7hPa North 1.6mph /  2.6km/h 4.5mph /  7.2km/h 71% 0in /  0.0mm 0.3mm
14:44 82 °F /  27.8 °C 71.2 °F /  21.8 °C 29.9in /  1011.7hPa NW 1.6mph /  2.6km/h 4.5mph /  7.2km/h 70% 0in /  0.0mm 0.3mm
14:50 82.8 °F /  28.2 °C 70.7 °F /  21.5 °C 29.9in /  1011.7hPa WNW 0.7mph /  1.1km/h 5.4mph /  8.7km/h 67% 0in /  0.0mm 0.3mm
14:56 82.4 °F /  28.0 °C 70.9 °F /  21.6 °C 29.9in /  1011.7hPa NNW 1.6mph /  2.6km/h 5.4mph /  8.7km/h 68% 0in /  0.0mm 0.3mm
15:02 82.9 °F /  28.3 °C 72.1 °F /  22.3 °C 29.9in /  1011.7hPa NNW 2.2mph /  3.5km/h 5.4mph /  8.7km/h 70% 0in /  0.0mm 0.3mm
15:08 82.9 °F /  28.3 °C 71.8 °F /  22.1 °C 29.9in /  1011.4hPa NNW 1.6mph /  2.6km/h 5.4mph /  8.7km/h 69% 0in /  0.0mm 0.3mm
15:14 84.4 °F /  29.1 °C 71.4 °F /  21.9 °C 29.9in /  1011.7hPa North 2.2mph /  3.5km/h 6mph /  9.7km/h 65% 0in /  0.0mm 0.3mm
15:20 83.3 °F /  28.5 °C 71.2 °F /  21.8 °C 29.9in /  1011.4hPa NNW 1.6mph /  2.6km/h 6mph /  9.7km/h 67% 0in /  0.0mm 0.3mm
15:26 84.7 °F /  29.3 °C 72.1 °F /  22.3 °C 29.9in /  1011.4hPa North 2.2mph /  3.5km/h 5.4mph /  8.7km/h 66% 0in /  0.0mm 0.3mm
15:32 84.4 °F /  29.1 °C 71.4 °F /  21.9 °C 29.9in /  1011.1hPa NNE 1.6mph /  2.6km/h 6.9mph /  11.1km/h 65% 0in /  0.0mm 0.3mm
15:38 85.6 °F /  29.8 °C 72.7 °F /  22.6 °C 29.9in /  1011.1hPa SSW 1.6mph /  2.6km/h 5.4mph /  8.7km/h 65% 0in /  0.0mm 0.3mm
15:44 86.4 °F /  30.2 °C 72 °F /  22.2 °C 29.9in /  1011.1hPa NE 2.2mph /  3.5km/h 5.4mph /  8.7km/h 62% 0in /  0.0mm 0.3mm
15:50 86.7 °F /  30.4 °C 71.2 °F /  21.8 °C 29.9in /  1011.1hPa NE 3.1mph /  5.0km/h 5.4mph /  8.7km/h 60% 0in /  0.0mm 0.3mm
15:56 85.5 °F /  29.7 °C 71.1 °F /  21.7 °C 29.8in /  1010.7hPa North 2.2mph /  3.5km/h 5.4mph /  8.7km/h 62% 0in /  0.0mm 0.3mm
16:02 85.3 °F /  29.6 °C 70.9 °F /  21.6 °C 29.9in /  1011.1hPa NNW 2.2mph /  3.5km/h 5.4mph /  8.7km/h 62% 0in /  0.0mm 0.3mm
16:08 85.6 °F /  29.8 °C 70.7 °F /  21.5 °C 29.9in /  1011.1hPa SW 1.6mph /  2.6km/h 5.4mph /  8.7km/h 61% 0in /  0.0mm 0.3mm
16:14 85.8 °F /  29.9 °C 71.8 °F /  22.1 °C 29.8in /  1010.7hPa West 3.1mph /  5.0km/h 5.4mph /  8.7km/h 63% 0in /  0.0mm 0.3mm
16:20 86 °F /  30.0 °C 71.1 °F /  21.7 °C 29.8in /  1010.7hPa NW 1.6mph /  2.6km/h 5.4mph /  8.7km/h 61% 0in /  0.0mm 0.3mm
16:26 83.8 °F /  28.8 °C 70 °F /  21.1 °C 29.8in /  1010.7hPa NNE 0.7mph /  1.1km/h 4.5mph /  7.2km/h 63% 0in /  0.0mm 0.3mm
16:32 82.4 °F /  28.0 °C 69.1 °F /  20.6 °C 29.8in /  1010.7hPa NE 1.6mph /  2.6km/h 5.4mph /  8.7km/h 64% 0in /  0.0mm 0.3mm
16:38 80.6 °F /  27.0 °C 69.1 °F /  20.6 °C 29.8in /  1010.7hPa WNW 1.6mph /  2.6km/h 5.4mph /  8.7km/h 68% 0in /  0.0mm 0.3mm
16:44 79.7 °F /  26.5 °C 70 °F /  21.1 °C 29.8in /  1010.7hPa NW 1.6mph /  2.6km/h 4.5mph /  7.2km/h 72% 0in /  0.0mm 0.3mm
16:50 79.7 °F /  26.5 °C 70 °F /  21.1 °C 29.8in /  1010.7hPa NNW 2.2mph /  3.5km/h 4.5mph /  7.2km/h 72% 0in /  0.0mm 0.3mm
16:56 79.5 °F /  26.4 °C 70.2 °F /  21.2 °C 29.8in /  1010.7hPa WNW 1.6mph /  2.6km/h 4.5mph /  7.2km/h 73% 0in /  0.0mm 0.3mm
17:02 79.5 °F /  26.4 °C 70.2 °F /  21.2 °C 29.8in /  1010.7hPa NNW 1.6mph /  2.6km/h 3.8mph /  6.1km/h 73% 0in /  0.0mm 0.3mm
17:08 79.7 °F /  26.5 °C 70.7 °F /  21.5 °C 29.8in /  1010.7hPa NNW 1.6mph /  2.6km/h 4.5mph /  7.2km/h 74% 0in /  0.0mm 0.3mm
17:14 79 °F /  26.1 °C 70 °F /  21.1 °C 29.8in /  1010.7hPa NNE 1.6mph /  2.6km/h 4.5mph /  7.2km/h 74% 0in /  0.0mm 0.3mm
17:20 79 °F /  26.1 °C 70.3 °F /  21.3 °C 29.8in /  1010.7hPa NW 2.2mph /  3.5km/h 6mph /  9.7km/h 75% 0in /  0.0mm 0.3mm
17:26 79 °F /  26.1 °C 70 °F /  21.1 °C 29.8in /  1010.4hPa NW 0.7mph /  1.1km/h 4.5mph /  7.2km/h 74% 0in /  0.0mm 0.3mm
17:32 78.8 °F /  26.0 °C 70.3 °F /  21.3 °C 29.8in /  1010.7hPa North 2.2mph /  3.5km/h 6mph /  9.7km/h 75% 0in /  0.0mm 0.3mm
17:38 78.8 °F /  26.0 °C 70.3 °F /  21.3 °C 29.8in /  1010.7hPa North 0.7mph /  1.1km/h 5.4mph /  8.7km/h 75% 0in /  0.0mm 0.3mm
17:44 79.7 °F /  26.5 °C 70.7 °F /  21.5 °C 29.8in /  1010.7hPa WNW 1.6mph /  2.6km/h 5.4mph /  8.7km/h 74% 0in /  0.0mm 0.3mm
17:50 80.4 °F /  26.9 °C 70.5 °F /  21.4 °C 29.8in /  1010.7hPa NNW 0.7mph /  1.1km/h 5.4mph /  8.7km/h 72% 0in /  0.0mm 0.3mm
17:56 79 °F /  26.1 °C 69.6 °F /  20.9 °C 29.8in /  1010.7hPa NE 1.6mph /  2.6km/h 5.4mph /  8.7km/h 73% 0in /  0.0mm 0.3mm
18:02 77.9 °F /  25.5 °C 69.4 °F /  20.8 °C 29.8in /  1010.7hPa NE 1.6mph /  2.6km/h 3.8mph /  6.1km/h 75% 0in /  0.0mm 0.3mm
18:08 76.8 °F /  24.9 °C 70.2 °F /  21.2 °C 29.8in /  1010.7hPa Calm   4.5mph /  7.2km/h 80% 0in /  0.0mm 0.3mm
18:14 76.3 °F /  24.6 °C 70.2 °F /  21.2 °C 29.8in /  1010.7hPa Calm   3.8mph /  6.1km/h 81% 0in /  0.0mm 0.3mm
18:20 75.9 °F /  24.4 °C 70.2 °F /  21.2 °C 29.8in /  1010.7hPa NW 1.6mph /  2.6km/h 3.8mph /  6.1km/h 82% 0in /  0.0mm 0.3mm
18:26 75.6 °F /  24.2 °C 69.6 °F /  20.9 °C 29.8in /  1010.7hPa WNW 3.8mph /  6.1km/h 5.4mph /  8.7km/h 82% 0in /  0.0mm 0.3mm
18:32 75.2 °F /  24.0 °C 69.6 °F /  20.9 °C 29.8in /  1010.7hPa WSW 1.6mph /  2.6km/h 6mph /  9.7km/h 83% 0in /  0.0mm 0.3mm
18:38 75.2 °F /  24.0 °C 69.6 °F /  20.9 °C 29.8in /  1010.7hPa WNW 1.6mph /  2.6km/h 4.5mph /  7.2km/h 83% 0in /  0.0mm 0.3mm
18:44 75.2 °F /  24.0 °C 70.2 °F /  21.2 °C 29.8in /  1010.7hPa West 1.6mph /  2.6km/h 3.8mph /  6.1km/h 84% 0in /  0.0mm 0.3mm
18:50 75 °F /  23.9 °C 70 °F /  21.1 °C 29.8in /  1010.7hPa WNW 1.6mph /  2.6km/h 3.8mph /  6.1km/h 84% 0in /  0.0mm 0.3mm
18:56 74.8 °F /  23.8 °C 69.6 °F /  20.9 °C 29.8in /  1010.7hPa WNW 1.6mph /  2.6km/h 4.5mph /  7.2km/h 84% 0in /  0.0mm 0.3mm
19:02 74.8 °F /  23.8 °C 69.6 °F /  20.9 °C 29.8in /  1010.7hPa NW 1.6mph /  2.6km/h 3.8mph /  6.1km/h 84% 0in /  0.0mm 0.3mm
19:08 74.7 °F /  23.7 °C 70 °F /  21.1 °C 29.8in /  1010.7hPa NNW 0.7mph /  1.1km/h 3.8mph /  6.1km/h 85% 0in /  0.0mm 0.3mm
19:14 74.5 °F /  23.6 °C 69.6 °F /  20.9 °C 29.8in /  1010.7hPa Calm   3.8mph /  6.1km/h 85% 0in /  0.0mm 0.3mm
19:20 74.5 °F /  23.6 °C 69.6 °F /  20.9 °C 29.8in /  1010.7hPa North 0.7mph /  1.1km/h 3.8mph /  6.1km/h 85% 0in /  0.0mm 0.3mm
19:26 74.3 °F /  23.5 °C 69.4 °F /  20.8 °C 29.9in /  1011.1hPa North 0.7mph /  1.1km/h 3.8mph /  6.1km/h 85% 0in /  0.0mm 0.3mm
19:32 74.1 °F /  23.4 °C 69.4 °F /  20.8 °C 29.9in /  1011.1hPa NNW 0.7mph /  1.1km/h 3.1mph /  5.0km/h 85% 0in /  0.0mm 0.3mm
19:38 74.1 °F /  23.4 °C 69.6 °F /  20.9 °C 29.9in /  1011.1hPa Calm   3.8mph /  6.1km/h 86% 0in /  0.0mm 0.3mm
19:44 73.9 °F /  23.3 °C 69.4 °F /  20.8 °C 29.9in /  1011.1hPa NNW 1.6mph /  2.6km/h 3.8mph /  6.1km/h 86% 0in /  0.0mm 0.3mm
19:50 73.9 °F /  23.3 °C 70 °F /  21.1 °C 29.9in /  1011.1hPa WNW 0.7mph /  1.1km/h 3.8mph /  6.1km/h 87% 0in /  0.0mm 0.3mm
19:56 73.9 °F /  23.3 °C 70 °F /  21.1 °C 29.9in /  1011.1hPa WNW 1.6mph /  2.6km/h 3.1mph /  5.0km/h 87% 0in /  0.0mm 0.3mm
20:02 73.8 °F /  23.2 °C 69.6 °F /  20.9 °C 29.9in /  1011.4hPa West 1.6mph /  2.6km/h 3.1mph /  5.0km/h 87% 0in /  0.0mm 0.3mm
20:08 73.8 °F /  23.2 °C 69.6 °F /  20.9 °C 29.9in /  1011.7hPa NNW 0.7mph /  1.1km/h 3.1mph /  5.0km/h 87% 0in /  0.0mm 0.3mm
20:14 73.4 °F /  23.0 °C 69.6 °F /  20.9 °C 29.9in /  1011.4hPa North 0.7mph /  1.1km/h 3.1mph /  5.0km/h 88% 0in /  0.0mm 0.3mm
20:20 73.2 °F /  22.9 °C 69.4 °F /  20.8 °C 29.9in /  1011.7hPa Calm   3.1mph /  5.0km/h 88% 0in /  0.0mm 0.3mm
20:26 73 °F /  22.8 °C 69.3 °F /  20.7 °C 29.9in /  1011.7hPa Calm   2.2mph /  3.5km/h 88% 0in /  0.0mm 0.3mm
20:32 72.9 °F /  22.7 °C 69.4 °F /  20.8 °C 29.9in /  1011.4hPa North 0.7mph /  1.1km/h 2.2mph /  3.5km/h 89% 0in /  0.0mm 0.3mm
20:38 72.9 °F /  22.7 °C 69.4 °F /  20.8 °C 29.9in /  1011.7hPa North 0.7mph /  1.1km/h 2.2mph /  3.5km/h 89% 0in /  0.0mm 0.3mm
20:44 72.7 °F /  22.6 °C 69.3 °F /  20.7 °C 29.9in /  1011.4hPa NNW 0.7mph /  1.1km/h 3.1mph /  5.0km/h 89% 0in /  0.0mm 0.3mm
20:50 72.9 °F /  22.7 °C 69.4 °F /  20.8 °C 29.9in /  1011.7hPa NNW 0.7mph /  1.1km/h 2.2mph /  3.5km/h 89% 0in /  0.0mm 0.3mm
20:56 72.7 °F /  22.6 °C 69.3 °F /  20.7 °C 29.9in /  1011.7hPa NNW 0.7mph /  1.1km/h 2.2mph /  3.5km/h 89% 0in /  0.0mm 0.3mm
21:02 72.7 °F /  22.6 °C 69.3 °F /  20.7 °C 29.9in /  1011.7hPa North 0.7mph /  1.1km/h 3.1mph /  5.0km/h 89% 0in /  0.0mm 0.3mm
21:08 72.7 °F /  22.6 °C 69.6 °F /  20.9 °C 29.9in /  1011.7hPa North 0.7mph /  1.1km/h 3.1mph /  5.0km/h 90% 0in /  0.0mm 0.3mm
21:14 72.9 °F /  22.7 °C 69.8 °F /  21.0 °C 29.9in /  1011.7hPa North 0.7mph /  1.1km/h 3.1mph /  5.0km/h 90% 0in /  0.0mm 0.3mm
21:20 72.9 °F /  22.7 °C 69.8 °F /  21.0 °C 29.9in /  1011.7hPa North 0.7mph /  1.1km/h 3.1mph /  5.0km/h 90% 0in /  0.0mm 0.3mm
21:26 72.7 °F /  22.6 °C 69.6 °F /  20.9 °C 29.9in /  1011.7hPa North 0.7mph /  1.1km/h 3.8mph /  6.1km/h 90% 0in /  0.0mm 0.3mm
21:32 72.7 °F /  22.6 °C 69.6 °F /  20.9 °C 29.9in /  1011.7hPa North 0.7mph /  1.1km/h 3.8mph /  6.1km/h 90% 0in /  0.0mm 0.3mm
21:38 72.7 °F /  22.6 °C 69.6 °F /  20.9 °C 29.9in /  1012.1hPa North 0.7mph /  1.1km/h 3.1mph /  5.0km/h 90% 0in /  0.0mm 0.3mm
21:44 72.5 °F /  22.5 °C 69.4 °F /  20.8 °C 29.9in /  1012.1hPa NW 0.7mph /  1.1km/h 3.8mph /  6.1km/h 90% 0in /  0.0mm 0.3mm
21:50 72.7 °F /  22.6 °C 69.6 °F /  20.9 °C 29.9in /  1012.1hPa WNW 0.7mph /  1.1km/h 3.8mph /  6.1km/h 90% 0in /  0.0mm 0.3mm
21:56 72.7 °F /  22.6 °C 69.6 °F /  20.9 °C 29.9in /  1012.1hPa North 1.6mph /  2.6km/h 3.1mph /  5.0km/h 90% 0in /  0.0mm 0.3mm
22:02 72.7 °F /  22.6 °C 69.6 °F /  20.9 °C 29.9in /  1012.1hPa NNW 0.7mph /  1.1km/h 3.1mph /  5.0km/h 90% 0in /  0.0mm 0.3mm
22:10 72.7 °F /  22.6 °C 70 °F /  21.1 °C 29.9in /  1012.1hPa North 0.7mph /  1.1km/h 3.1mph /  5.0km/h 91% 0in /  0.0mm 0.3mm
22:16 72.7 °F /  22.6 °C 70 °F /  21.1 °C 29.9in /  1012.1hPa NW 1.6mph /  2.6km/h 3.1mph /  5.0km/h 91% 0in /  0.0mm 0.3mm
22:22 72.7 °F /  22.6 °C 69.6 °F /  20.9 °C 29.9in /  1012.1hPa WNW 0.7mph /  1.1km/h 3.1mph /  5.0km/h 90% 0in /  0.0mm 0.3mm
22:28 72.7 °F /  22.6 °C 69.6 °F /  20.9 °C 29.9in /  1012.1hPa WNW 1.6mph /  2.6km/h 3.1mph /  5.0km/h 90% 0in /  0.0mm 0.3mm
22:34 72.7 °F /  22.6 °C 69.6 °F /  20.9 °C 29.9in /  1012.1hPa NNW 1.6mph /  2.6km/h 3.1mph /  5.0km/h 90% 0in /  0.0mm 0.3mm
22:40 72.5 °F /  22.5 °C 69.4 °F /  20.8 °C 29.9in /  1012.1hPa North 0.7mph /  1.1km/h 3.1mph /  5.0km/h 90% 0in /  0.0mm 0.3mm
22:46 72.5 °F /  22.5 °C 69.4 °F /  20.8 °C 29.9in /  1012.1hPa NW 0.7mph /  1.1km/h 4.5mph /  7.2km/h 90% 0in /  0.0mm 0.3mm
22:52 72.5 °F /  22.5 °C 69.1 °F /  20.6 °C 29.9in /  1012.1hPa WNW 2.2mph /  3.5km/h 4.5mph /  7.2km/h 89% 0in /  0.0mm 0.3mm
22:58 72.5 °F /  22.5 °C 69.1 °F /  20.6 °C 29.9in /  1012.4hPa WNW 2.2mph /  3.5km/h 4.5mph /  7.2km/h 89% 0in /  0.0mm 0.3mm
23:04 72.3 °F /  22.4 °C 68.9 °F /  20.5 °C 29.9in /  1012.1hPa WNW 2.2mph /  3.5km/h 5.4mph /  8.7km/h 89% 0in /  0.0mm 0.3mm
23:10 72.1 °F /  22.3 °C 68.7 °F /  20.4 °C 29.9in /  1012.1hPa WNW 3.1mph /  5.0km/h 5.4mph /  8.7km/h 89% 0in /  0.0mm 0.3mm
23:16 71.8 °F /  22.1 °C 68.4 °F /  20.2 °C 29.9in /  1012.1hPa West 4.5mph /  7.2km/h 6mph /  9.7km/h 89% 0in /  0.0mm 0.3mm
23:22 71.2 °F /  21.8 °C 68.2 °F /  20.1 °C 29.9in /  1012.1hPa WSW 1.6mph /  2.6km/h 6mph /  9.7km/h 90% 0in /  0.0mm 0.3mm
23:28 71.1 °F /  21.7 °C 68 °F /  20.0 °C 29.9in /  1012.1hPa West 1.6mph /  2.6km/h 5.4mph /  8.7km/h 90% 0in /  0.0mm 0.3mm
23:34 70.7 °F /  21.5 °C 68 °F /  20.0 °C 29.9in /  1012.1hPa WNW 0.7mph /  1.1km/h 3.8mph /  6.1km/h 91% 0in /  0.0mm 0.3mm
23:40 70.3 °F /  21.3 °C 67.6 °F /  19.8 °C 29.9in /  1012.1hPa Calm   2.2mph /  3.5km/h 91% 0in /  0.0mm 0.3mm
23:46 70.2 °F /  21.2 °C 67.5 °F /  19.7 °C 29.9in /  1012.1hPa West 0.7mph /  1.1km/h 2.2mph /  3.5km/h 91% 0in /  0.0mm 0.3mm
23:52 70.2 °F /  21.2 °C 67.8 °F /  19.9 °C 29.9in /  1012.1hPa Calm   2.2mph /  3.5km/h 92% 0in /  0.0mm 0.3mm
23:58 70.2 °F /  21.2 °C 67.8 °F /  19.9 °C 29.9in /  1012.1hPa WNW 1.6mph /  2.6km/h 2.2mph /  3.5km/h 92% 0in /  0.0mm 0.3mm
Opotiki Town Weather
Compliments of Weather Underground - memory used : 2 mb

NZ Local Weather Forum      Cumulus Top Weather Sites      New Zealand Top40 Weather Station Sites      Flag Counter